Time;durP1;ratioP1;P1;durP2;ratioP2;P2;SDS_P1;SDS_P2;PMS_P1;PMS_P2;Temp;Humidity;BMP_temperature;BMP_pressure;BME280_temperature;BME280_humidity;BME280_pressure;Samples;Min_cycle;Max_cycle;Signal;HPM_P1;HPM_P2
2024/03/10 00:02:05;;;;;;;5.43;3.30;;;8.70;99.90;;;;;;5034155;28;20037;-78
2024/03/10 00:04:31;;;;;;;7.57;3.40;;;8.70;99.90;;;;;;5035406;28;20033;-79
2024/03/10 00:06:58;;;;;;;7.23;3.13;;;8.70;99.90;;;;;;5035550;28;20029;-79
2024/03/10 00:09:24;;;;;;;5.40;2.97;;;8.70;99.90;;;;;;5034801;28;20440;-79
2024/03/10 00:11:50;;;;;;;7.30;3.17;;;8.80;99.90;;;;;;5035263;28;20025;-79
2024/03/10 00:14:17;;;;;;;5.70;3.10;;;8.80;99.90;;;;;;5035686;28;20037;-79
2024/03/10 00:16:43;;;;;;;5.13;2.60;;;8.80;99.90;;;;;;5035603;28;20045;-79
2024/03/10 00:19:11;;;;;;;10.47;3.00;;;8.80;99.90;;;;;;5035401;28;20612;-78
2024/03/10 00:21:37;;;;;;;9.97;3.67;;;8.80;99.90;;;;;;5035405;28;20088;-78
2024/03/10 00:24:04;;;;;;;5.20;3.03;;;8.80;99.90;;;;;;5035490;28;20029;-78
2024/03/10 00:26:30;;;;;;;7.27;3.47;;;8.80;99.90;;;;;;5035529;28;20492;-79
2024/03/10 00:28:56;;;;;;;6.33;3.40;;;8.80;99.90;;;;;;5035311;28;20034;-76
2024/03/10 00:31:22;;;;;;;8.23;3.53;;;8.90;99.90;;;;;;5035225;28;20030;-76
2024/03/10 00:33:48;;;;;;;6.43;3.33;;;8.90;99.90;;;;;;5035136;28;20087;-76
2024/03/10 00:36:13;;;;;;;6.10;3.20;;;8.90;99.90;;;;;;5035281;28;20104;-76
2024/03/10 00:38:39;;;;;;;7.43;3.03;;;8.90;99.90;;;;;;5035542;28;20036;-76
2024/03/10 00:41:05;;;;;;;9.53;3.20;;;8.90;99.90;;;;;;5034773;28;20045;-76
2024/03/10 00:43:33;;;;;;;4.67;2.60;;;8.90;99.90;;;;;;5034507;28;20033;-76
2024/03/10 00:45:59;;;;;;;5.30;3.30;;;8.90;99.90;;;;;;5017595;28;20045;-75
2024/03/10 00:48:25;;;;;;;5.97;2.90;;;8.90;99.90;;;;;;5035241;28;20033;-76
2024/03/10 00:50:51;;;;;;;4.87;2.50;;;9.00;99.90;;;;;;5035839;28;20034;-79
2024/03/10 00:53:18;;;;;;;4.97;2.60;;;8.90;99.90;;;;;;5035512;28;20029;-78
2024/03/10 00:55:44;;;;;;;4.00;2.20;;;9.00;99.90;;;;;;5035408;28;20048;-79
2024/03/10 00:58:10;;;;;;;5.63;2.23;;;8.90;99.90;;;;;;5035513;28;20160;-79
2024/03/10 01:00:37;;;;;;;4.63;2.20;;;8.90;99.90;;;;;;5035073;28;20045;-79
2024/03/10 01:03:06;;;;;;;8.10;2.13;;;9.00;99.90;;;;;;5034847;28;20363;-78
2024/03/10 01:13:34;;;;;;;5.93;2.27;;;9.00;99.90;;;;;;5034727;28;20032;-79
2024/03/10 01:23:04;;;;;;;4.57;2.27;;;8.90;99.90;;;;;;4823023;29;20129;-77
2024/03/10 01:29:00;;;;;;;6.17;2.50;;;8.90;99.90;;;;;;4788274;29;20031;-78
2024/03/10 01:31:27;;;;;;;5.87;2.77;;;8.90;99.90;;;;;;4837319;29;20041;-79
2024/03/10 01:33:53;;;;;;;3.60;2.47;;;8.90;99.90;;;;;;4908497;29;20032;-79
2024/03/10 01:36:19;;;;;;;3.80;2.30;;;8.90;99.90;;;;;;4972307;28;20454;-78
2024/03/10 01:38:45;;;;;;;5.97;2.70;;;8.90;99.90;;;;;;5014145;28;20117;-79
2024/03/10 01:41:12;;;;;;;4.73;2.40;;;8.90;99.90;;;;;;5014369;28;20037;-79
2024/03/10 01:43:40;;;;;;;4.57;2.47;;;9.00;99.90;;;;;;5012983;28;20132;-78
2024/03/10 01:46:11;;;;;;;7.60;2.77;;;9.00;99.90;;;;;;5014184;28;20426;-79
2024/03/10 01:48:39;;;;;;;6.60;2.67;;;9.00;99.90;;;;;;5013943;28;20481;-79
2024/03/10 01:51:06;;;;;;;4.87;2.23;;;8.90;99.90;;;;;;5012834;28;20445;-79
2024/03/10 01:53:34;;;;;;;6.67;2.67;;;8.90;99.90;;;;;;5013986;28;20037;-79
2024/03/10 01:56:01;;;;;;;5.63;2.40;;;8.90;99.90;;;;;;5014063;28;20517;-79
2024/03/10 01:58:30;;;;;;;3.30;2.40;;;8.90;99.90;;;;;;5011995;28;20045;-79
2024/03/10 02:01:04;;;;;;;5.73;2.17;;;8.90;99.90;;;;;;5011152;28;20517;-78
2024/03/10 02:03:31;;;;;;;5.60;2.70;;;8.90;99.90;;;;;;5011433;28;20030;-78
2024/03/10 02:05:57;;;;;;;5.77;2.80;;;9.00;99.90;;;;;;5013171;28;20164;-79
2024/03/10 02:08:23;;;;;;;6.23;2.40;;;8.90;99.90;;;;;;5013350;28;20141;-78
2024/03/10 02:10:50;;;;;;;6.67;2.47;;;9.00;99.90;;;;;;5012658;28;20030;-79
2024/03/10 02:13:16;;;;;;;3.60;2.13;;;8.90;99.90;;;;;;5013562;28;20036;-77
2024/03/10 02:15:43;;;;;;;8.90;2.43;;;8.90;99.90;;;;;;5013510;28;20042;-79
2024/03/10 02:18:10;;;;;;;3.30;2.13;;;9.00;99.90;;;;;;5013460;28;20109;-78
2024/03/10 02:20:38;;;;;;;4.97;2.40;;;9.00;99.90;;;;;;5011769;28;20057;-78
2024/03/10 02:23:04;;;;;;;5.00;2.43;;;8.90;99.90;;;;;;5013480;28;20038;-79
2024/03/10 02:25:38;;;;;;;5.33;2.40;;;8.90;99.90;;;;;;5012006;28;20038;-79
2024/03/10 02:28:20;;;;;;;7.60;2.47;;;8.90;99.90;;;;;;5011648;28;20052;-79
2024/03/10 02:30:58;;;;;;;5.32;2.92;;;9.00;99.90;;;;;;5012299;28;20038;-79
2024/03/10 02:52:15;;;;;;;6.37;3.90;;;8.90;99.90;;;;;;4972667;28;20057;-77
2024/03/10 02:59:09;;;;;;;5.77;2.90;;;8.90;99.90;;;;;;4777124;30;20554;-78
2024/03/10 03:05:11;;;;;;;6.23;3.33;;;8.80;99.90;;;;;;4785802;29;20050;-78
2024/03/10 03:11:09;;;;;;;7.80;3.07;;;8.80;99.90;;;;;;4804277;29;20043;-78
2024/03/10 03:13:36;;;;;;;;;;;8.80;99.90;;;;;;4843418;29;20084;-78
2024/03/10 03:16:02;;;;;;;7.50;2.80;;;8.80;99.90;;;;;;4881951;29;19915;-79
2024/03/10 03:18:29;;;;;;;8.87;3.00;;;8.80;99.90;;;;;;4963505;28;20450;-79
2024/03/10 03:20:55;;;;;;;7.97;2.93;;;8.80;99.90;;;;;;5010650;28;20498;-79
2024/03/10 03:23:21;;;;;;;4.30;2.70;;;8.90;99.90;;;;;;5012854;28;20038;-79
2024/03/10 03:25:49;;;;;;;8.50;2.80;;;8.80;99.90;;;;;;5012982;28;20030;-78
2024/03/10 03:28:15;;;;;;;7.13;3.00;;;8.80;99.90;;;;;;5012899;28;20089;-78
2024/03/10 03:30:45;;;;;;;4.90;2.80;;;8.80;99.90;;;;;;5012733;28;20400;-78
2024/03/10 03:33:12;;;;;;;4.80;2.20;;;8.80;99.90;;;;;;5011984;28;20042;-78
2024/03/10 03:35:38;;;;;;;5.90;2.97;;;8.80;99.90;;;;;;5012651;28;20046;-78
2024/03/10 03:38:05;;;;;;;6.30;2.80;;;8.80;99.90;;;;;;5016471;28;20065;-78
2024/03/10 03:40:30;;;;;;;7.93;3.00;;;8.80;99.90;;;;;;5016708;28;20034;-78
2024/03/10 03:42:56;;;;;;;6.63;3.30;;;8.80;99.90;;;;;;5016292;28;20030;-78
2024/03/10 03:45:23;;;;;;;4.93;2.23;;;8.80;99.90;;;;;;5016275;28;20045;-78
2024/03/10 03:47:49;;;;;;;5.90;2.47;;;8.80;99.90;;;;;;5016633;28;20486;-78
2024/03/10 03:50:18;;;;;;;7.50;3.10;;;8.80;99.90;;;;;;5016529;28;20113;-78
2024/03/10 03:52:44;;;;;;;5.77;3.13;;;8.80;99.90;;;;;;5016212;28;20541;-77
2024/03/10 03:55:12;;;;;;;5.40;2.60;;;8.80;99.90;;;;;;5015827;28;20073;-76
2024/03/10 03:57:38;;;;;;;6.73;2.40;;;8.80;99.90;;;;;;5014816;28;20084;-76
2024/03/10 04:00:05;;;;;;;7.57;2.57;;;8.80;99.90;;;;;;5016102;28;20069;-76
2024/03/10 04:02:32;;;;;;;3.77;2.53;;;8.80;99.90;;;;;;5015886;28;20030;-75
2024/03/10 04:04:58;;;;;;;4.53;2.37;;;8.80;99.90;;;;;;5016199;28;20485;-76
2024/03/10 04:07:24;;;;;;;6.03;3.10;;;8.80;99.90;;;;;;5016119;28;20038;-75
2024/03/10 04:09:50;;;;;;;4.57;2.80;;;8.80;99.90;;;;;;5016015;28;20108;-75
2024/03/10 04:12:16;;;;;;;4.33;2.50;;;8.80;99.90;;;;;;5015845;28;20060;-76
2024/03/10 04:14:41;;;;;;;8.30;2.67;;;8.80;99.90;;;;;;5015842;28;20088;-77
2024/03/10 04:17:07;;;;;;;5.93;4.53;;;8.80;99.90;;;;;;5016420;28;20042;-79
2024/03/10 04:19:33;;;;;;;4.50;2.57;;;8.80;99.90;;;;;;5024021;28;20044;-78
2024/03/10 04:21:59;;;;;;;5.27;2.53;;;8.70;99.90;;;;;;5018173;28;20064;-78
2024/03/10 04:24:34;;;;;;;8.87;2.40;;;8.70;99.90;;;;;;5035761;28;20033;-79
2024/03/10 04:38:32;;;;;;;4.72;2.60;;;8.70;99.90;;;;;;4888486;29;20041;-79
2024/03/10 04:48:22;;;;;;;5.77;2.53;;;8.60;99.90;;;;;;4792714;29;20047;-78
2024/03/10 04:54:41;;;;;;;6.25;2.72;;;8.60;99.90;;;;;;4769391;30;20119;-79
2024/03/10 04:57:07;;;;;;;8.73;2.50;;;8.60;99.90;;;;;;4786800;30;20051;-79
2024/03/10 04:59:35;;;;;;;7.57;2.63;;;8.60;99.90;;;;;;4777024;30;20519;-78
2024/03/10 05:02:01;;;;;;;5.23;2.40;;;8.60;99.90;;;;;;4935129;28;20091;-78
2024/03/10 05:04:27;;;;;;;6.33;2.87;;;8.50;99.90;;;;;;5017005;28;20026;-79
2024/03/10 05:06:52;;;;;;;7.67;2.63;;;8.60;99.90;;;;;;5034676;28;20061;-77
2024/03/10 05:09:18;;;;;;;4.20;2.50;;;8.60;99.90;;;;;;5034831;28;20044;-78
2024/03/10 05:11:44;;;;;;;4.43;2.33;;;8.60;99.90;;;;;;5034597;28;20109;-78
2024/03/10 05:14:10;;;;;;;5.00;2.57;;;8.50;99.90;;;;;;5016557;28;20040;-79
2024/03/10 05:16:35;;;;;;;5.37;2.93;;;8.60;99.90;;;;;;5016325;28;20102;-77
2024/03/10 05:19:02;;;;;;;4.30;2.80;;;8.60;99.90;;;;;;5033852;28;20042;-78
2024/03/10 05:21:27;;;;;;;5.23;2.40;;;8.60;99.90;;;;;;5034118;28;20517;-77
2024/03/10 05:23:53;;;;;;;3.83;2.57;;;8.60;99.90;;;;;;5034068;28;20036;-78
2024/03/10 05:26:19;;;;;;;5.80;2.73;;;8.60;99.90;;;;;;5034212;28;20160;-78
2024/03/10 05:28:45;;;;;;;3.30;2.60;;;8.60;99.90;;;;;;5034351;28;20026;-78
2024/03/10 05:31:30;;;;;;;6.33;2.83;;;8.60;99.90;;;;;;5034199;28;20053;-78
2024/03/10 05:33:59;;;;;;;5.53;2.73;;;8.60;99.90;;;;;;5033945;28;20500;-77
2024/03/10 05:36:26;;;;;;;6.57;4.00;;;8.50;99.90;;;;;;5033962;28;20038;-78
2024/03/10 05:38:52;;;;;;;6.43;3.20;;;8.50;99.90;;;;;;5033900;28;20030;-79
2024/03/10 05:41:18;;;;;;;5.40;3.03;;;8.50;99.90;;;;;;5034113;28;20036;-78
2024/03/10 05:43:44;;;;;;;5.13;3.20;;;8.50;99.90;;;;;;5034125;28;20029;-77
2024/03/10 05:46:12;;;;;;;6.87;2.80;;;8.50;99.90;;;;;;5033746;28;20115;-78
2024/03/10 05:48:41;;;;;;;5.67;2.93;;;8.50;99.90;;;;;;5016254;28;20401;-78
2024/03/10 05:51:12;;;;;;;5.07;2.63;;;8.50;99.90;;;;;;5033724;28;20505;-78
2024/03/10 05:53:38;;;;;;;4.73;2.40;;;8.50;99.90;;;;;;5033315;28;20025;-79
2024/03/10 05:56:05;;;;;;;4.10;2.70;;;8.60;99.90;;;;;;5032252;28;20374;-76
2024/03/10 05:58:39;;;;;;;5.53;3.23;;;8.60;99.90;;;;;;5033119;28;20033;-77
2024/03/10 06:01:05;;;;;;;4.67;2.83;;;8.60;99.90;;;;;;5033457;28;20037;-78
2024/03/10 06:03:32;;;;;;;9.93;2.50;;;8.60;99.90;;;;;;5034057;28;20035;-77
2024/03/10 06:05:58;;;;;;;8.73;2.50;;;8.70;99.90;;;;;;5033859;28;20394;-78
2024/03/10 06:08:24;;;;;;;7.80;2.80;;;8.70;99.90;;;;;;5033955;28;20027;-78
2024/03/10 06:10:54;;;;;;;5.33;2.13;;;8.70;99.90;;;;;;5033732;28;20401;-77
2024/03/10 06:17:05;;;;;;;9.70;3.40;;;8.70;99.90;;;;;;5023061;28;20037;-77
2024/03/10 06:33:02;;;;;;;13.70;6.70;;;8.70;99.90;;;;;;5013724;28;20406;-78
2024/03/10 06:35:46;;;;;;;15.30;8.00;;;8.70;99.90;;;;;;5013146;28;20479;-78
2024/03/10 06:38:40;;;;;;;14.73;8.03;;;8.70;99.90;;;;;;5011736;28;20050;-78
2024/03/10 06:41:07;;;;;;;12.77;7.53;;;8.60;99.90;;;;;;5008639;28;20410;-78
2024/03/10 06:43:33;;;;;;;12.50;7.67;;;8.60;99.90;;;;;;5013736;28;20033;-79
2024/03/10 06:46:00;;;;;;;13.93;7.23;;;8.60;99.90;;;;;;5013361;28;20394;-79
2024/03/10 06:48:26;;;;;;;20.67;7.87;;;8.60;99.90;;;;;;5013078;28;20128;-79
2024/03/10 06:50:54;;;;;;;8.70;6.80;;;8.60;99.90;;;;;;5013493;28;20461;-77
2024/03/10 06:53:20;;;;;;;12.73;6.90;;;8.60;99.90;;;;;;5013094;28;20442;-78
2024/03/10 06:55:46;;;;;;;9.87;5.87;;;8.70;99.90;;;;;;5013159;28;20046;-78
2024/03/10 06:58:12;;;;;;;12.23;6.00;;;8.60;99.90;;;;;;5012705;28;20059;-78
2024/03/10 07:00:39;;;;;;;10.77;6.33;;;8.70;99.90;;;;;;5013026;28;20083;-78
2024/03/10 07:03:05;;;;;;;8.47;5.87;;;8.80;99.90;;;;;;5012576;28;20037;-79
2024/03/10 07:05:33;;;;;;;15.80;5.90;;;8.80;99.90;;;;;;5013014;28;20478;-79
2024/03/10 07:08:00;;;;;;;9.10;6.27;;;8.80;99.90;;;;;;5012983;28;20193;-78
2024/03/10 07:10:29;;;;;;;10.33;6.00;;;8.80;99.90;;;;;;5012608;28;20509;-79
2024/03/10 07:12:55;;;;;;;10.27;6.53;;;8.80;99.90;;;;;;5016415;28;20152;-79
2024/03/10 07:15:22;;;;;;;9.47;6.43;;;8.80;99.90;;;;;;5016679;28;20117;-79
2024/03/10 07:17:47;;;;;;;7.67;5.30;;;8.90;99.90;;;;;;5015430;28;20040;-77
2024/03/10 07:20:13;;;;;;;6.93;5.00;;;8.80;99.90;;;;;;5029809;28;20041;-77
2024/03/10 07:22:41;;;;;;;7.83;4.03;;;8.90;99.90;;;;;;5036692;28;20044;-76
2024/03/10 07:25:10;;;;;;;6.53;3.63;;;8.90;99.90;;;;;;5037752;28;20037;-75
2024/03/10 07:27:36;;;;;;;6.37;3.63;;;9.00;99.90;;;;;;5036723;28;20124;-75
2024/03/10 07:30:04;;;;;;;6.03;3.27;;;9.00;99.90;;;;;;5037453;28;20056;-76
2024/03/10 07:32:31;;;;;;;5.63;3.33;;;9.00;99.90;;;;;;5037381;28;20041;-76
2024/03/10 07:34:58;;;;;;;6.80;2.90;;;9.00;99.90;;;;;;5035412;28;20120;-75
2024/03/10 07:37:24;;;;;;;6.60;3.10;;;9.10;99.90;;;;;;5036070;28;20124;-76
2024/03/10 07:39:50;;;;;;;9.67;4.63;;;9.10;99.90;;;;;;5035828;28;20029;-76
2024/03/10 07:42:16;;;;;;;16.20;5.47;;;9.10;99.90;;;;;;5036247;28;20048;-78
2024/03/10 07:44:42;;;;;;;10.07;4.97;;;9.10;99.90;;;;;;5036446;28;20037;-79
2024/03/10 07:47:08;;;;;;;16.37;5.10;;;9.20;99.90;;;;;;5018388;28;20041;-79
2024/03/10 07:49:35;;;;;;;6.47;3.70;;;9.20;99.90;;;;;;5036340;28;20061;-78
2024/03/10 07:52:01;;;;;;;4.77;3.40;;;9.20;99.90;;;;;;5036045;28;20147;-78
2024/03/10 07:54:30;;;;;;;6.47;3.37;;;9.20;99.90;;;;;;5036057;28;20489;-79
2024/03/10 07:57:22;;;;;;;8.97;3.30;;;9.30;99.90;;;;;;5036157;28;20050;-78
2024/03/10 07:59:57;;;;;;;4.03;2.27;;;9.30;99.90;;;;;;5017378;28;20038;-77
2024/03/10 08:08:58;;;;;;;5.47;2.30;;;9.30;99.90;;;;;;4974353;28;20119;-78
2024/03/10 08:11:38;;;;;;;5.50;2.00;;;9.40;99.90;;;;;;5008424;28;20045;-78
2024/03/10 08:17:08;;;;;;;3.97;2.17;;;9.40;99.90;;;;;;4985150;28;20045;-78
2024/03/10 08:23:13;;;;;;;4.83;2.43;;;9.50;99.90;;;;;;5028932;28;20139;-79
2024/03/10 08:25:40;;;;;;;4.50;3.00;;;9.50;99.90;;;;;;5035611;28;20425;-78
2024/03/10 08:28:06;;;;;;;5.43;2.83;;;9.50;99.90;;;;;;5035329;28;20030;-78
2024/03/10 08:30:32;;;;;;;7.03;2.60;;;9.50;99.90;;;;;;4946309;28;20053;-78
2024/03/10 08:32:59;;;;;;;3.63;2.13;;;9.50;99.90;;;;;;5017047;28;20022;-78
2024/03/10 08:35:25;;;;;;;4.03;2.30;;;9.50;99.90;;;;;;5013838;28;20358;-77
2024/03/10 08:37:51;;;;;;;10.97;2.63;;;9.50;99.90;;;;;;5008137;28;20434;-76
2024/03/10 08:40:17;;;;;;;8.10;2.17;;;9.50;99.90;;;;;;5012932;28;20046;-76
2024/03/10 08:42:44;;;;;;;5.27;2.30;;;9.50;99.90;;;;;;4995374;28;20097;-79
2024/03/10 08:45:12;;;;;;;4.93;2.20;;;9.60;99.90;;;;;;4992608;28;20730;-78
2024/03/10 08:47:41;;;;;;;8.30;3.03;;;9.60;99.90;;;;;;5008161;28;20038;-79
2024/03/10 08:50:09;;;;;;;4.37;2.57;;;9.60;99.90;;;;;;5006121;28;20046;-76
2024/03/10 08:52:36;;;;;;;4.47;2.50;;;9.60;99.90;;;;;;4981869;28;20054;-76
2024/03/10 08:55:06;;;;;;;4.43;2.50;;;9.60;99.90;;;;;;4998489;28;20501;-74
2024/03/10 08:57:33;;;;;;;6.30;2.90;;;9.60;99.90;;;;;;4996569;28;20552;-76
2024/03/10 09:00:02;;;;;;;5.73;2.50;;;9.60;99.90;;;;;;5008688;28;20034;-77
2024/03/10 09:02:29;;;;;;;5.87;2.37;;;9.70;99.90;;;;;;5014726;28;20065;-76
2024/03/10 09:04:55;;;;;;;6.10;2.43;;;9.70;99.90;;;;;;5009903;28;20486;-77
2024/03/10 09:07:21;;;;;;;5.43;2.10;;;9.70;99.90;;;;;;5013175;28;20041;-77
2024/03/10 09:09:47;;;;;;;5.70;2.33;;;9.70;99.90;;;;;;4996479;28;20065;-75
2024/03/10 09:12:12;;;;;;;5.10;2.07;;;9.70;99.90;;;;;;5014141;28;20030;-76
2024/03/10 09:14:38;;;;;;;6.70;2.80;;;9.70;99.90;;;;;;4995457;28;20034;-76
2024/03/10 09:17:04;;;;;;;3.73;2.70;;;9.70;99.90;;;;;;5014354;28;20038;-76
2024/03/10 09:19:30;;;;;;;5.17;2.50;;;9.70;99.90;;;;;;5013501;28;20092;-78
2024/03/10 09:21:58;;;;;;;8.40;3.00;;;9.70;99.90;;;;;;5011183;28;20041;-78
2024/03/10 09:24:26;;;;;;;6.93;3.27;;;9.80;99.90;;;;;;5011570;28;21252;-79
2024/03/10 09:26:53;;;;;;;4.93;3.00;;;9.70;99.90;;;;;;5005867;28;20464;-79
2024/03/10 09:29:21;;;;;;;7.63;3.00;;;9.80;99.90;;;;;;4983125;28;20077;-78
2024/03/10 09:31:48;;;;;;;8.52;4.32;;;9.80;99.90;;;;;;5001526;28;20034;-79
2024/03/10 09:34:56;;;;;;;7.55;4.90;;;9.80;99.90;;;;;;5011205;28;20041;-75
2024/03/10 09:51:41;;;;;;;10.03;6.10;;;9.90;99.90;;;;;;4934710;29;20039;-78
2024/03/10 09:55:00;;;;;;;10.43;6.93;;;9.90;99.90;;;;;;4931397;29;20492;-75
2024/03/10 10:01:11;;;;;;;11.20;8.33;;;10.00;99.90;;;;;;4896337;29;20131;-77
2024/03/10 10:03:43;;;;;;;13.40;8.40;;;10.10;99.90;;;;;;4933685;29;20417;-79
2024/03/10 10:06:12;;;;;;;16.08;9.10;;;10.10;99.90;;;;;;4918080;29;20488;-78
2024/03/10 10:08:38;;;;;;;12.77;8.87;;;10.10;99.90;;;;;;4985711;28;20436;-78
2024/03/10 10:11:08;;;;;;;15.77;12.57;;;10.20;99.90;;;;;;5013517;28;20038;-78
2024/03/10 10:13:35;;;;;;;39.45;27.30;;;10.20;99.90;;;;;;5013185;28;20367;-78
2024/03/10 10:16:08;;;;;;;40.80;31.27;;;10.20;99.90;;;;;;4995615;28;20481;-78
2024/03/10 10:18:36;;;;;;;18.40;13.60;;;10.30;99.90;;;;;;5013455;28;20061;-78
2024/03/10 10:21:07;;;;;;;20.60;13.77;;;10.30;99.90;;;;;;5013356;28;20073;-76
2024/03/10 10:23:35;;;;;;;18.88;12.50;;;10.30;99.90;;;;;;5013197;28;20435;-77
2024/03/10 10:26:09;;;;;;;17.97;11.50;;;10.40;99.90;;;;;;5013292;28;20486;-78
2024/03/10 10:28:37;;;;;;;16.92;11.88;;;10.40;99.90;;;;;;5013607;28;20084;-79
2024/03/10 10:31:10;;;;;;;13.40;10.57;;;10.50;99.90;;;;;;5013410;28;20482;-73
2024/03/10 10:33:38;;;;;;;14.98;9.82;;;10.50;99.90;;;;;;5013004;28;20066;-77
2024/03/10 10:36:05;;;;;;;15.45;9.57;;;10.50;99.90;;;;;;5012162;28;20382;-76
2024/03/10 10:38:45;;;;;;;13.50;10.25;;;10.50;99.90;;;;;;4992887;28;20022;-79
2024/03/10 10:41:12;;;;;;;16.85;10.25;;;10.50;99.90;;;;;;4993667;28;20034;-77
2024/03/10 10:43:42;;;;;;;16.77;10.80;;;10.60;99.90;;;;;;4993556;28;20030;-75
2024/03/10 10:46:12;;;;;;;14.10;10.32;;;10.60;99.90;;;;;;4993269;28;20391;-75
2024/03/10 10:48:45;;;;;;;16.48;9.80;;;10.70;99.90;;;;;;4991848;28;20038;-75
2024/03/10 10:51:10;;;;;;;;;;;10.70;99.90;;;;;;4991230;28;20085;-75
2024/03/10 10:53:38;;;;;;;14.80;8.40;;;10.70;99.90;;;;;;4990907;28;19913;-75
2024/03/10 10:56:04;;;;;;;19.50;7.93;;;10.70;99.90;;;;;;4975811;28;20104;-77
2024/03/10 10:58:33;;;;;;;21.75;15.60;;;10.70;99.90;;;;;;4993188;28;20085;-76
2024/03/10 11:01:04;;;;;;;16.88;12.27;;;10.70;99.90;;;;;;4992891;28;20037;-75
2024/03/10 11:03:39;;;;;;;19.17;11.02;;;10.80;99.90;;;;;;4993238;28;20034;-76
2024/03/10 11:06:08;;;;;;;18.15;9.90;;;10.70;99.90;;;;;;4994193;28;20110;-79
2024/03/10 11:08:41;;;;;;;14.30;7.47;;;10.80;99.90;;;;;;4993970;28;20124;-79
2024/03/10 11:11:09;;;;;;;16.58;7.60;;;10.80;99.90;;;;;;4993557;28;20146;-79
2024/03/10 11:13:43;;;;;;;15.88;7.95;;;10.80;99.90;;;;;;4993843;28;20031;-78
2024/03/10 11:16:35;;;;;;;15.30;8.30;;;10.80;99.90;;;;;;5002308;23;20057;-77
2024/03/10 11:19:18;;;;;;;16.20;9.82;;;10.80;99.90;;;;;;4964585;28;20053;-74
2024/03/10 11:21:50;;;;;;;16.70;9.13;;;10.80;99.90;;;;;;4989322;28;20078;-74
2024/03/10 11:24:22;;;;;;;15.52;9.13;;;10.90;99.90;;;;;;4992846;28;20540;-75
2024/03/10 11:27:08;;;;;;;30.13;18.80;;;10.90;99.90;;;;;;4993356;28;20022;-74
2024/03/10 11:29:37;;;;;;;19.52;10.23;;;10.90;99.90;;;;;;4993031;28;20034;-74
2024/03/10 11:32:03;;;;;;;14.85;7.80;;;10.90;99.90;;;;;;4975706;28;20034;-79
2024/03/10 11:34:30;;;;;;;12.35;6.38;;;11.00;99.90;;;;;;4993073;28;20080;-79
2024/03/10 11:36:57;;;;;;;15.00;6.82;;;11.00;99.90;;;;;;4992677;28;20050;-78
2024/03/10 11:39:23;;;;;;;20.35;6.80;;;11.00;99.90;;;;;;4992072;28;20034;-72
2024/03/10 11:41:49;;;;;;;16.48;7.03;;;11.10;99.90;;;;;;4991246;28;20081;-79
2024/03/10 11:44:16;;;;;;;11.05;5.90;;;11.10;99.90;;;;;;4992867;28;20030;-78
2024/03/10 11:46:43;;;;;;;16.73;6.65;;;11.10;99.90;;;;;;4993290;28;20031;-78
2024/03/10 11:49:11;;;;;;;11.75;6.70;;;11.10;99.90;;;;;;4976428;28;20122;-78
2024/03/10 11:52:45;;;;;;;12.15;6.45;;;11.10;99.90;;;;;;4994033;28;20030;-77
2024/03/10 11:55:18;;;;;;;;;;;11.10;99.90;;;;;;4923459;28;20518;-79
2024/03/10 12:01:52;;;;;;;11.48;6.22;;;11.20;99.90;;;;;;4895364;29;20039;-79
2024/03/10 12:12:43;;;;;;;22.75;9.25;;;11.10;99.90;;;;;;4823832;29;20026;-79
2024/03/10 12:15:38;;;;;;;14.63;8.45;;;11.10;99.90;;;;;;4787281;29;20039;-78
2024/03/10 12:18:08;;;;;;;16.02;9.07;;;11.10;99.90;;;;;;4788071;29;20059;-79
2024/03/10 12:20:43;;;;;;;18.10;9.63;;;11.10;99.90;;;;;;4787448;29;20049;-79
2024/03/10 12:23:12;;;;;;;13.18;8.45;;;11.10;99.90;;;;;;4891025;29;20044;-79
2024/03/10 12:25:44;;;;;;;17.05;8.55;;;11.10;99.90;;;;;;4937933;28;20438;-78
2024/03/10 12:28:14;;;;;;;13.77;7.45;;;11.10;99.90;;;;;;4973923;28;20442;-78
2024/03/10 12:30:43;;;;;;;10.82;6.35;;;11.10;99.90;;;;;;4976008;28;20027;-77
2024/03/10 12:33:12;;;;;;;18.98;7.13;;;11.10;99.90;;;;;;4976585;28;20037;-76
2024/03/10 12:35:38;;;;;;;12.82;7.50;;;11.10;99.90;;;;;;4959152;28;20443;-76
2024/03/10 12:38:14;;;;;;;17.38;9.00;;;11.10;99.90;;;;;;4975551;28;20442;-75
2024/03/10 12:40:39;;;;;;;17.73;8.65;;;11.10;99.90;;;;;;4976220;28;20038;-77
2024/03/10 12:43:05;;;;;;;17.65;8.32;;;11.10;99.90;;;;;;4982488;28;20791;-74
2024/03/10 12:45:31;;;;;;;15.43;8.07;;;11.10;99.90;;;;;;4979372;28;20070;-77
2024/03/10 12:47:57;;;;;;;14.65;7.20;;;11.10;99.90;;;;;;4976066;28;20035;-77
2024/03/10 12:50:24;;;;;;;16.95;7.18;;;11.10;99.90;;;;;;4976338;28;20034;-77
2024/03/10 12:52:50;;;;;;;17.50;7.15;;;11.10;99.90;;;;;;4994185;28;20483;-77
2024/03/10 12:55:18;;;;;;;17.90;8.45;;;11.10;99.90;;;;;;4995587;28;20434;-79
2024/03/10 12:57:44;;;;;;;18.92;7.80;;;11.10;99.90;;;;;;4995276;28;20069;-76
2024/03/10 13:02:47;;;;;;;13.98;7.05;;;11.10;99.90;;;;;;4986319;28;20122;-76
2024/03/10 13:05:12;;;;;;;12.73;7.47;;;11.10;99.90;;;;;;4991617;28;20035;-76
2024/03/10 13:07:39;;;;;;;18.17;6.82;;;11.10;99.90;;;;;;4992645;28;20038;-76
2024/03/10 13:10:07;;;;;;;14.88;6.13;;;11.10;99.90;;;;;;4994420;28;20038;-76
2024/03/10 13:12:33;;;;;;;13.95;6.18;;;11.10;99.90;;;;;;4995001;28;20038;-76
2024/03/10 13:15:00;;;;;;;12.05;6.15;;;11.10;99.90;;;;;;4994691;28;20121;-76
2024/03/10 13:17:29;;;;;;;13.25;5.97;;;11.10;99.90;;;;;;4993672;28;20046;-76
2024/03/10 13:19:54;;;;;;;16.23;6.22;;;11.10;99.90;;;;;;4994704;28;20045;-78
2024/03/10 13:22:23;;;;;;;14.25;5.85;;;11.10;99.90;;;;;;4995522;28;20039;-76
2024/03/10 13:24:49;;;;;;;13.75;5.75;;;11.10;99.90;;;;;;4978315;28;20042;-79
2024/03/10 13:27:16;;;;;;;13.02;6.68;;;11.10;99.90;;;;;;4995775;28;20034;-78
2024/03/10 13:29:42;;;;;;;15.63;7.15;;;11.10;99.90;;;;;;4995544;28;20038;-78
2024/03/10 13:32:19;;;;;;;12.88;6.35;;;11.10;99.90;;;;;;4995478;28;20034;-77
2024/03/10 13:35:26;;;;;;;13.07;6.65;;;11.10;99.90;;;;;;4995411;28;20390;-78
2024/03/10 13:39:10;;;;;;;16.50;7.03;;;11.20;99.90;;;;;;4975195;28;20038;-78
2024/03/10 13:49:38;;;;;;;13.98;4.88;;;11.10;99.90;;;;;;4786682;30;20485;-79
2024/03/10 13:52:37;;;;;;;13.55;5.43;;;11.10;99.90;;;;;;4786325;30;20390;-78
2024/03/10 13:58:33;;;;;;;18.85;5.93;;;11.10;99.90;;;;;;4798926;29;20050;-77
2024/03/10 14:00:59;;;;;;;14.70;5.80;;;11.10;99.90;;;;;;4865517;28;20375;-77
2024/03/10 14:03:26;;;;;;;12.90;5.63;;;11.10;99.90;;;;;;4975240;28;20045;-77
2024/03/10 14:05:52;;;;;;;12.45;5.47;;;11.10;99.90;;;;;;4974625;28;20449;-78
2024/03/10 14:08:18;;;;;;;21.15;6.32;;;11.10;99.90;;;;;;4974895;28;20106;-79
2024/03/10 14:10:44;;;;;;;13.38;6.00;;;11.10;99.90;;;;;;4982219;28;20038;-78
2024/03/10 14:13:15;;;;;;;14.30;5.50;;;11.10;99.90;;;;;;4994121;28;20042;-79
2024/03/10 14:15:41;;;;;;;14.18;6.15;;;11.20;99.90;;;;;;4976953;28;20481;-78
2024/03/10 14:18:07;;;;;;;13.88;5.97;;;11.20;99.90;;;;;;4993759;28;20165;-79
2024/03/10 14:20:33;;;;;;;15.93;5.55;;;11.20;99.90;;;;;;4993631;28;20399;-79
2024/03/10 14:22:59;;;;;;;21.90;6.80;;;11.20;99.90;;;;;;4994205;28;20042;-79
2024/03/10 14:25:25;;;;;;;17.13;5.10;;;11.20;99.90;;;;;;4994154;28;20095;-78
2024/03/10 14:27:52;;;;;;;15.88;5.57;;;11.20;99.90;;;;;;4976516;28;20045;-77
2024/03/10 14:30:21;;;;;;;17.85;6.55;;;11.20;99.90;;;;;;4993879;28;20039;-76
2024/03/10 14:32:47;;;;;;;16.20;6.18;;;11.20;99.90;;;;;;4993803;28;20030;-77
2024/03/10 14:35:15;;;;;;;18.50;5.78;;;11.20;99.90;;;;;;4993681;28;20518;-78
2024/03/10 14:37:43;;;;;;;12.43;5.32;;;11.20;99.90;;;;;;4993895;28;20498;-77
2024/03/10 14:40:15;;;;;;;14.30;6.25;;;11.20;99.90;;;;;;4993937;28;20026;-78
2024/03/10 14:42:45;;;;;;;14.85;6.63;;;11.20;99.90;;;;;;4993783;28;20426;-78
2024/03/10 14:45:10;;;;;;;22.00;7.00;;;11.20;99.90;;;;;;4993748;28;20034;-77
2024/03/10 14:47:39;;;;;;;21.25;8.68;;;11.20;99.90;;;;;;4976099;28;20038;-77
2024/03/10 14:50:05;;;;;;;17.25;7.00;;;11.20;99.90;;;;;;4976517;28;20501;-77
2024/03/10 14:52:32;;;;;;;21.30;6.40;;;11.30;99.90;;;;;;4976146;28;20084;-77
2024/03/10 14:55:04;;;;;;;16.42;5.97;;;11.30;99.90;;;;;;4993668;28;20026;-76
2024/03/10 14:57:30;;;;;;;16.53;7.50;;;11.30;99.90;;;;;;4993544;28;20494;-77
2024/03/10 14:59:59;;;;;;;25.63;7.38;;;11.30;99.90;;;;;;4992282;28;20033;-77
2024/03/10 15:02:27;;;;;;;17.45;6.75;;;11.30;99.90;;;;;;4994184;28;20026;-78
2024/03/10 15:04:53;;;;;;;24.20;8.10;;;11.20;99.90;;;;;;4994358;28;20382;-77
2024/03/10 15:07:21;;;;;;;18.75;8.18;;;11.30;99.90;;;;;;4994138;28;20398;-77
2024/03/10 15:09:47;;;;;;;19.88;8.73;;;11.30;99.90;;;;;;4992730;28;20045;-77
2024/03/10 15:13:04;;;;;;;21.23;8.10;;;11.30;99.90;;;;;;4976357;28;20034;-78
2024/03/10 15:19:05;;;;;;;15.48;8.00;;;11.30;99.90;;;;;;4895951;29;20137;-78
2024/03/10 15:21:37;;;;;;;19.20;9.15;;;11.30;99.90;;;;;;4974476;28;20047;-77
2024/03/10 15:24:06;;;;;;;26.35;9.35;;;11.30;99.90;;;;;;4974121;28;20059;-78
2024/03/10 15:27:21;;;;;;;25.08;8.60;;;11.30;99.90;;;;;;4985632;28;20041;-79
2024/03/10 15:30:02;;;;;;;18.48;9.57;;;11.30;99.90;;;;;;4886802;29;20054;-77